createdAt,value
2017-02-13T00:00:33.133Z,21.9
2017-02-13T00:01:41.217Z,21.9
2017-02-13T00:02:49.316Z,22.0
2017-02-13T00:03:57.396Z,21.9
2017-02-13T00:05:05.485Z,21.9
2017-02-13T00:06:13.577Z,21.9
2017-02-13T00:07:21.664Z,21.9
2017-02-13T00:08:29.747Z,21.9
2017-02-13T00:09:37.836Z,21.9
2017-02-13T00:10:45.921Z,21.8
2017-02-13T00:11:54.015Z,21.8
2017-02-13T00:13:02.099Z,21.8
2017-02-13T00:14:10.184Z,21.8
2017-02-13T00:15:18.274Z,21.8
2017-02-13T00:16:26.362Z,21.7
2017-02-13T00:17:34.452Z,21.7
2017-02-13T00:18:42.538Z,21.7
2017-02-13T00:19:50.628Z,21.7
2017-02-13T00:20:58.710Z,21.7
2017-02-13T00:22:06.802Z,21.7
2017-02-13T00:23:14.889Z,21.7
2017-02-13T00:24:22.973Z,21.7
2017-02-13T00:25:31.062Z,21.6
2017-02-13T00:26:39.153Z,21.8
2017-02-13T00:27:47.233Z,21.6
2017-02-13T00:28:55.321Z,21.5
2017-02-13T00:30:03.410Z,21.7
2017-02-13T00:31:11.502Z,21.6
2017-02-13T00:32:19.592Z,21.6
2017-02-13T00:33:27.680Z,21.7
2017-02-13T00:34:35.765Z,21.6
2017-02-13T00:35:43.851Z,21.7
2017-02-13T00:36:51.933Z,21.6
2017-02-13T00:38:00.022Z,21.6
2017-02-13T00:39:08.105Z,21.5
2017-02-13T00:40:16.190Z,21.6
2017-02-13T00:41:24.281Z,21.5
2017-02-13T00:42:32.370Z,21.6
2017-02-13T00:43:40.455Z,21.5
2017-02-13T00:44:48.534Z,21.5
2017-02-13T00:45:56.624Z,21.5
2017-02-13T00:47:04.710Z,21.4
2017-02-13T00:48:12.794Z,21.4
2017-02-13T00:49:20.883Z,21.4
2017-02-13T00:50:28.967Z,21.4
2017-02-13T00:51:37.052Z,21.4
2017-02-13T00:52:45.138Z,21.4
2017-02-13T00:53:53.223Z,21.4
2017-02-13T00:55:01.309Z,21.3
2017-02-13T00:56:09.396Z,21.4
2017-02-13T00:57:17.489Z,21.3
2017-02-13T00:58:25.578Z,21.3
2017-02-13T00:59:33.669Z,21.3
2017-02-13T01:00:41.752Z,21.3
2017-02-13T01:01:49.844Z,21.3
2017-02-13T01:02:57.930Z,21.3
2017-02-13T01:04:06.017Z,21.2
2017-02-13T01:05:14.112Z,21.4
2017-02-13T01:06:22.196Z,21.2
2017-02-13T01:07:30.281Z,21.2
2017-02-13T01:08:38.366Z,21.3
2017-02-13T01:09:46.451Z,21.2
2017-02-13T01:10:54.541Z,21.2
2017-02-13T01:12:02.628Z,21.1
2017-02-13T01:13:10.719Z,21.2
2017-02-13T01:14:18.802Z,21.2
2017-02-13T01:15:26.886Z,21.2
2017-02-13T01:16:34.975Z,21.2
2017-02-13T01:17:43.061Z,21.1
2017-02-13T01:18:51.147Z,21.1
2017-02-13T01:19:59.231Z,21.2
2017-02-13T01:21:07.329Z,21.2
2017-02-13T01:22:15.417Z,21.2
2017-02-13T01:23:23.504Z,21.2
2017-02-13T01:24:31.587Z,21.1
2017-02-13T01:25:39.674Z,21.2
2017-02-13T01:26:47.753Z,21.1
2017-02-13T01:27:55.842Z,21.2
2017-02-13T01:29:03.929Z,21.2
2017-02-13T01:30:12.017Z,21.1
2017-02-13T01:31:20.103Z,21.2
2017-02-13T01:32:28.197Z,21.2
2017-02-13T01:33:36.284Z,21.2
2017-02-13T01:34:44.369Z,21.2
2017-02-13T01:35:52.450Z,21.1
2017-02-13T01:37:00.549Z,21.2
2017-02-13T01:38:08.631Z,21.2
2017-02-13T01:39:16.719Z,21.2
2017-02-13T01:40:24.808Z,21.2
2017-02-13T01:41:32.903Z,21.2
2017-02-13T01:42:40.986Z,21.1
2017-02-13T01:43:49.076Z,21.2
2017-02-13T01:44:57.168Z,21.2
2017-02-13T01:46:05.252Z,21.2
2017-02-13T01:47:13.334Z,21.2
2017-02-13T01:48:21.423Z,21.2
2017-02-13T01:49:29.516Z,21.1
2017-02-13T01:50:37.594Z,21.1
2017-02-13T01:51:45.683Z,21.2
2017-02-13T01:52:53.772Z,21.1
2017-02-13T01:54:01.877Z,21.1
2017-02-13T01:55:09.940Z,21.1
2017-02-13T01:56:18.029Z,21.1
2017-02-13T01:57:26.115Z,21.2
2017-02-13T01:58:34.202Z,21.1
2017-02-13T01:59:42.287Z,21.2
2017-02-13T02:00:50.372Z,21.1
2017-02-13T02:01:58.516Z,21.2
2017-02-13T02:03:06.548Z,21.2
2017-02-13T02:04:14.640Z,21.2
2017-02-13T02:05:22.726Z,21.2
2017-02-13T02:06:30.807Z,21.3
2017-02-13T02:07:38.898Z,21.3
2017-02-13T02:08:46.986Z,21.2
2017-02-13T02:09:55.070Z,21.2
2017-02-13T02:11:03.156Z,21.3
2017-02-13T02:12:11.247Z,21.3
2017-02-13T02:13:19.333Z,21.3
2017-02-13T02:14:27.426Z,21.2
2017-02-13T02:15:35.520Z,21.3
2017-02-13T02:16:43.607Z,21.3
2017-02-13T02:17:51.689Z,21.3
2017-02-13T02:18:59.813Z,21.4
2017-02-13T02:20:07.863Z,21.3
2017-02-13T02:21:15.961Z,21.3
2017-02-13T02:22:24.044Z,21.3
2017-02-13T02:23:32.131Z,21.4
2017-02-13T02:24:40.216Z,21.3
2017-02-13T02:25:48.326Z,21.3
2017-02-13T02:26:56.387Z,21.3
2017-02-13T02:28:04.476Z,21.4
2017-02-13T02:29:12.565Z,21.4
2017-02-13T02:30:20.646Z,21.4
2017-02-13T02:31:28.735Z,21.3
2017-02-13T02:32:36.826Z,21.4
2017-02-13T02:33:44.921Z,21.4
2017-02-13T02:34:53.004Z,21.4
2017-02-13T02:36:01.175Z,21.3
2017-02-13T02:37:09.177Z,21.4
2017-02-13T02:38:17.259Z,21.4
2017-02-13T02:39:25.349Z,21.4
2017-02-13T02:40:33.436Z,21.4
2017-02-13T02:41:41.520Z,21.4
2017-02-13T02:42:49.605Z,21.4
2017-02-13T02:43:57.699Z,21.4
2017-02-13T02:45:05.781Z,21.4
2017-02-13T02:46:13.868Z,21.4
2017-02-13T02:47:21.956Z,21.4
2017-02-13T02:48:30.039Z,21.4
2017-02-13T02:49:38.130Z,21.4
2017-02-13T02:50:46.206Z,21.4
2017-02-13T02:51:54.299Z,21.4
2017-02-13T02:53:02.418Z,21.4
2017-02-13T02:54:10.465Z,21.4
2017-02-13T02:55:18.561Z,21.5
2017-02-13T02:56:26.646Z,21.4
2017-02-13T02:57:34.735Z,21.4
2017-02-13T02:58:42.813Z,21.5
2017-02-13T02:59:50.907Z,21.4
2017-02-13T03:00:58.991Z,21.4
2017-02-13T03:02:07.069Z,21.4
2017-02-13T03:03:15.159Z,21.5
2017-02-13T03:04:23.250Z,21.5
2017-02-13T03:05:31.327Z,21.4
2017-02-13T03:06:39.413Z,21.4
2017-02-13T03:07:47.524Z,21.4
2017-02-13T03:08:55.591Z,21.4
2017-02-13T03:10:03.675Z,21.4
2017-02-13T03:11:11.762Z,21.4
2017-02-13T03:12:19.850Z,21.4
2017-02-13T03:13:27.929Z,21.4
2017-02-13T03:14:36.018Z,21.4
2017-02-13T03:15:44.102Z,21.3
2017-02-13T03:16:52.185Z,21.4
2017-02-13T03:18:00.272Z,21.4
2017-02-13T03:19:08.361Z,21.4
2017-02-13T03:20:16.448Z,21.4
2017-02-13T03:21:24.535Z,21.3
2017-02-13T03:22:32.619Z,21.4
2017-02-13T03:23:40.707Z,21.4
2017-02-13T03:24:48.793Z,21.3
2017-02-13T03:25:56.878Z,21.3
2017-02-13T03:27:04.966Z,21.4
2017-02-13T03:28:13.056Z,21.3
2017-02-13T03:29:21.140Z,21.4
2017-02-13T03:30:29.229Z,21.4
2017-02-13T03:31:37.316Z,21.3
2017-02-13T03:32:45.403Z,21.4
2017-02-13T03:33:53.485Z,21.3
2017-02-13T03:35:01.570Z,21.3
2017-02-13T03:36:09.659Z,21.4
2017-02-13T03:37:17.742Z,21.4
2017-02-13T03:38:25.831Z,21.3
2017-02-13T03:39:33.922Z,21.3
2017-02-13T03:40:42.009Z,21.3
2017-02-13T03:41:50.095Z,21.3
2017-02-13T03:42:58.188Z,21.3
2017-02-13T03:44:06.274Z,21.3
2017-02-13T03:45:14.358Z,21.2
2017-02-13T03:46:22.453Z,21.2
2017-02-13T03:47:30.539Z,21.2
2017-02-13T03:48:38.629Z,21.4
2017-02-13T03:49:46.713Z,21.3
2017-02-13T03:50:54.804Z,21.2
2017-02-13T03:52:02.891Z,21.2
2017-02-13T03:53:10.980Z,21.2
2017-02-13T03:54:19.070Z,21.3
2017-02-13T03:55:27.156Z,21.2
2017-02-13T03:56:35.252Z,21.2
2017-02-13T03:57:43.337Z,21.3
2017-02-13T03:58:51.428Z,21.1
2017-02-13T03:59:59.520Z,21.2
2017-02-13T04:01:07.602Z,21.2
2017-02-13T04:02:15.693Z,21.2
2017-02-13T04:03:23.780Z,21.2
2017-02-13T04:04:31.864Z,21.2
2017-02-13T04:05:39.950Z,21.1
2017-02-13T04:06:48.039Z,21.1
2017-02-13T04:07:56.123Z,21.2
2017-02-13T04:09:04.205Z,21.1
2017-02-13T04:10:12.297Z,21.2
2017-02-13T04:11:20.386Z,21.0
2017-02-13T04:12:28.478Z,21.2
2017-02-13T04:13:36.559Z,21.1
2017-02-13T04:14:44.651Z,21.1
2017-02-13T04:15:52.733Z,21.1
2017-02-13T04:17:00.818Z,21.1
2017-02-13T04:18:08.909Z,21.0
2017-02-13T04:19:17.000Z,21.1
2017-02-13T04:20:25.088Z,21.0
2017-02-13T04:21:33.175Z,21.0
2017-02-13T04:22:41.265Z,21.0
2017-02-13T04:23:49.358Z,21.0
2017-02-13T04:24:57.438Z,21.1
2017-02-13T04:26:05.528Z,21.0
2017-02-13T04:27:13.616Z,21.0
2017-02-13T04:28:21.700Z,21.0
2017-02-13T04:29:29.791Z,21.0
2017-02-13T04:30:37.875Z,21.0
2017-02-13T04:31:45.961Z,20.9
2017-02-13T04:32:54.043Z,20.9
2017-02-13T04:34:02.138Z,20.9
2017-02-13T04:35:10.256Z,20.9
2017-02-13T04:36:18.309Z,20.9
2017-02-13T04:37:26.399Z,20.9
2017-02-13T04:38:34.487Z,20.9
2017-02-13T04:39:42.568Z,20.9
2017-02-13T04:40:50.655Z,20.9
2017-02-13T04:41:58.744Z,20.9
2017-02-13T04:43:06.828Z,20.9
2017-02-13T04:44:14.912Z,20.9
2017-02-13T04:45:23.003Z,20.9
2017-02-13T04:46:31.095Z,20.9
2017-02-13T04:47:39.184Z,20.8
2017-02-13T04:48:47.268Z,20.9
2017-02-13T04:49:55.358Z,20.8
2017-02-13T04:51:03.441Z,20.8
2017-02-13T04:52:11.528Z,20.8
2017-02-13T04:53:19.621Z,20.9
2017-02-13T04:54:27.699Z,20.8
2017-02-13T04:55:35.787Z,20.8
2017-02-13T04:56:43.868Z,20.7
2017-02-13T04:57:51.957Z,20.7
2017-02-13T04:59:00.047Z,20.7
2017-02-13T05:00:08.125Z,20.7
2017-02-13T05:01:16.220Z,20.7
2017-02-13T05:02:24.306Z,20.7
2017-02-13T05:03:32.390Z,20.7
2017-02-13T05:04:40.477Z,20.8
2017-02-13T05:05:48.567Z,20.7
2017-02-13T05:06:56.653Z,20.7
2017-02-13T05:08:04.735Z,20.6
2017-02-13T05:09:12.826Z,20.7
2017-02-13T05:10:20.914Z,20.6
2017-02-13T05:11:29.001Z,20.6
2017-02-13T05:12:37.078Z,20.6
2017-02-13T05:13:45.168Z,20.6
2017-02-13T05:14:53.249Z,20.5
2017-02-13T05:16:01.338Z,20.6
2017-02-13T05:17:09.434Z,20.4
2017-02-13T05:18:17.524Z,20.5
2017-02-13T05:19:25.605Z,20.6
2017-02-13T05:20:33.694Z,20.5
2017-02-13T05:21:41.859Z,20.5
2017-02-13T05:22:49.872Z,20.5
2017-02-13T05:23:57.953Z,20.4
2017-02-13T05:25:06.046Z,20.5
2017-02-13T05:26:14.136Z,20.4
2017-02-13T05:27:22.219Z,20.5
2017-02-13T05:28:30.308Z,20.5
2017-02-13T05:29:38.392Z,20.5
2017-02-13T05:30:46.476Z,20.5
2017-02-13T05:31:54.558Z,20.4
2017-02-13T05:33:02.646Z,20.5
2017-02-13T05:34:10.736Z,20.5
2017-02-13T05:35:18.821Z,20.3
2017-02-13T05:36:26.907Z,20.4
2017-02-13T05:37:34.992Z,20.4
2017-02-13T05:38:43.103Z,20.4
2017-02-13T05:39:51.163Z,20.3
2017-02-13T05:40:59.253Z,20.2
2017-02-13T05:42:07.343Z,20.3
2017-02-13T05:43:15.421Z,20.3
2017-02-13T05:44:23.511Z,20.3
2017-02-13T05:45:31.597Z,20.3
2017-02-13T05:46:39.689Z,20.3
2017-02-13T05:47:47.769Z,20.2
2017-02-13T05:48:55.857Z,20.1
2017-02-13T05:50:03.945Z,20.1
2017-02-13T05:51:12.034Z,20.2
2017-02-13T05:52:20.126Z,20.2
2017-02-13T05:53:28.211Z,20.2
2017-02-13T05:54:36.296Z,20.2
2017-02-13T05:55:44.413Z,20.1
2017-02-13T05:56:52.472Z,20.2
2017-02-13T05:58:00.557Z,20.1
2017-02-13T05:59:08.650Z,20.1
2017-02-13T06:00:16.735Z,20.1
2017-02-13T06:01:24.837Z,20.1
2017-02-13T06:02:32.911Z,20.1
2017-02-13T06:03:40.996Z,20.1
2017-02-13T06:04:49.088Z,20.0
2017-02-13T06:05:57.175Z,20.1
2017-02-13T06:07:05.256Z,20.0
2017-02-13T06:08:13.344Z,20.0
2017-02-13T06:09:21.430Z,20.0
2017-02-13T06:10:29.516Z,20.0
2017-02-13T06:11:37.600Z,19.9
2017-02-13T06:12:45.686Z,20.0
2017-02-13T06:13:53.778Z,19.9
2017-02-13T06:15:03.162Z,19.9
2017-02-13T06:16:09.951Z,19.9
2017-02-13T06:17:18.036Z,19.9
2017-02-13T06:18:26.119Z,19.9
2017-02-13T06:19:34.203Z,20.0
2017-02-13T06:20:42.292Z,19.9
2017-02-13T06:21:50.381Z,19.8
2017-02-13T06:22:58.468Z,19.8
2017-02-13T06:24:06.546Z,19.7
2017-02-13T06:25:14.635Z,19.9
2017-02-13T06:26:22.718Z,19.8
2017-02-13T06:27:30.808Z,19.7
2017-02-13T06:28:38.895Z,19.7
2017-02-13T06:29:46.979Z,19.8
2017-02-13T06:30:55.068Z,19.8
2017-02-13T06:32:03.156Z,19.7
2017-02-13T06:33:11.244Z,19.7
2017-02-13T06:34:19.329Z,19.7
2017-02-13T06:35:27.413Z,19.7
2017-02-13T06:36:35.496Z,19.7
2017-02-13T06:37:43.591Z,19.7
2017-02-13T06:38:51.671Z,19.7
2017-02-13T06:39:59.758Z,19.7
2017-02-13T06:41:07.842Z,19.7
2017-02-13T06:42:15.925Z,19.6
2017-02-13T06:43:24.015Z,19.7
2017-02-13T06:44:32.102Z,19.7
2017-02-13T06:45:40.191Z,19.8
2017-02-13T06:46:48.272Z,19.7
2017-02-13T06:47:56.368Z,19.7
2017-02-13T06:49:04.457Z,19.7
2017-02-13T06:50:12.537Z,19.7
2017-02-13T06:51:20.626Z,19.7
2017-02-13T06:52:28.714Z,19.7
2017-02-13T06:53:36.796Z,19.7
2017-02-13T06:54:44.882Z,19.7
2017-02-13T06:55:52.996Z,19.7
2017-02-13T06:57:01.062Z,19.8
2017-02-13T06:58:09.148Z,19.8
2017-02-13T06:59:17.234Z,19.7
2017-02-13T07:00:25.321Z,19.8
2017-02-13T07:01:33.413Z,19.8
2017-02-13T07:02:41.492Z,19.8
2017-02-13T07:03:49.863Z,19.8
2017-02-13T07:04:57.685Z,19.9
2017-02-13T07:06:05.760Z,19.9
2017-02-13T07:07:13.844Z,19.9
2017-02-13T07:08:21.931Z,20.0
2017-02-13T07:09:30.017Z,20.0
2017-02-13T07:10:38.100Z,20.0
2017-02-13T07:11:46.189Z,20.0
2017-02-13T07:12:54.280Z,20.0
2017-02-13T07:14:02.364Z,20.1
2017-02-13T07:15:10.454Z,20.0
2017-02-13T07:16:18.743Z,20.1
2017-02-13T07:17:26.625Z,20.1
2017-02-13T07:18:34.709Z,20.1
2017-02-13T07:19:42.797Z,20.1
2017-02-13T07:20:50.889Z,20.2
2017-02-13T07:21:59.089Z,20.2
2017-02-13T07:23:07.063Z,20.2
2017-02-13T07:24:15.418Z,20.2
2017-02-13T07:25:23.739Z,20.2
2017-02-13T07:26:31.318Z,20.2
2017-02-13T07:27:39.406Z,20.2
2017-02-13T07:28:47.487Z,20.3
2017-02-13T07:29:55.579Z,20.3
2017-02-13T07:31:04.098Z,20.3
2017-02-13T07:32:11.963Z,20.4
2017-02-13T07:33:20.022Z,20.4
2017-02-13T07:34:28.489Z,20.4
2017-02-13T07:35:36.011Z,20.3
2017-02-13T07:36:44.094Z,20.3
2017-02-13T07:37:52.176Z,20.5
2017-02-13T07:39:00.263Z,20.4
2017-02-13T07:40:08.933Z,20.5
2017-02-13T07:41:17.022Z,20.5
2017-02-13T07:42:24.518Z,20.5
2017-02-13T07:43:32.603Z,20.5
2017-02-13T07:44:40.689Z,20.5
2017-02-13T07:45:49.390Z,20.5
2017-02-13T07:46:56.941Z,20.5
2017-02-13T07:48:05.484Z,20.5
2017-02-13T07:49:13.595Z,20.5
2017-02-13T07:50:21.152Z,20.5
2017-02-13T07:51:29.220Z,20.5
2017-02-13T07:52:38.022Z,20.5
2017-02-13T07:53:45.387Z,20.5
2017-02-13T07:54:53.488Z,20.5
2017-02-13T07:56:01.653Z,20.6
2017-02-13T07:57:09.650Z,20.6
2017-02-13T07:58:19.010Z,20.6
2017-02-13T07:59:26.174Z,20.6
2017-02-13T08:00:33.916Z,20.6
2017-02-13T08:01:42.003Z,20.6
2017-02-13T08:02:50.088Z,20.6
2017-02-13T08:03:58.169Z,20.6
2017-02-13T08:05:06.264Z,20.6
2017-02-13T08:06:14.347Z,20.6
2017-02-13T08:07:22.430Z,20.6
2017-02-13T08:08:30.519Z,20.6
2017-02-13T08:09:38.601Z,20.6
2017-02-13T08:10:46.689Z,20.6
2017-02-13T08:11:54.776Z,20.6
2017-02-13T08:13:02.857Z,20.6
2017-02-13T08:14:10.946Z,20.7
2017-02-13T08:15:19.031Z,20.6
2017-02-13T08:16:27.113Z,20.6
2017-02-13T08:17:35.198Z,20.6
2017-02-13T08:18:43.291Z,20.6
2017-02-13T08:19:51.379Z,20.6
2017-02-13T08:20:59.465Z,20.6
2017-02-13T08:22:07.563Z,20.6
2017-02-13T08:23:15.641Z,20.6
2017-02-13T08:24:23.723Z,20.6
2017-02-13T08:25:31.804Z,20.6
2017-02-13T08:26:40.007Z,20.6
2017-02-13T08:27:47.976Z,20.6
2017-02-13T08:28:56.062Z,20.6
2017-02-13T08:30:04.181Z,20.6
2017-02-13T08:31:12.711Z,20.6
2017-02-13T08:32:20.324Z,20.6
2017-02-13T08:33:28.406Z,20.6
2017-02-13T08:34:36.503Z,20.6
2017-02-13T08:35:44.946Z,20.6
2017-02-13T08:36:52.691Z,20.6
2017-02-13T08:38:00.762Z,20.6
2017-02-13T08:39:09.053Z,20.5
2017-02-13T08:40:16.930Z,20.5
2017-02-13T08:41:25.017Z,20.5
2017-02-13T08:42:33.108Z,20.5
2017-02-13T08:43:41.194Z,20.5
2017-02-13T08:44:49.279Z,20.6
2017-02-13T08:45:57.374Z,20.5
2017-02-13T08:47:05.458Z,20.5
2017-02-13T08:48:13.551Z,20.5
2017-02-13T08:49:21.637Z,20.5
2017-02-13T08:50:29.726Z,20.5
2017-02-13T08:51:37.808Z,20.5
2017-02-13T08:52:45.893Z,20.5
2017-02-13T08:53:53.985Z,20.5
2017-02-13T08:55:02.359Z,20.5
2017-02-13T08:56:10.155Z,20.5
2017-02-13T08:57:18.467Z,20.5
2017-02-13T08:58:26.375Z,20.5
2017-02-13T08:59:34.427Z,20.5
2017-02-13T09:00:42.510Z,20.5
2017-02-13T09:01:50.599Z,20.5
2017-02-13T09:02:58.684Z,20.6
2017-02-13T09:04:06.767Z,20.6
2017-02-13T09:05:14.865Z,20.4
2017-02-13T09:06:22.953Z,20.5
2017-02-13T09:07:31.037Z,20.5
2017-02-13T09:08:39.342Z,20.5
2017-02-13T09:09:47.207Z,20.5
2017-02-13T09:10:55.293Z,20.5
2017-02-13T09:12:03.376Z,20.5
2017-02-13T09:13:11.519Z,20.4
2017-02-13T09:14:19.554Z,20.5
2017-02-13T09:15:27.728Z,20.6
2017-02-13T09:16:35.728Z,20.5
2017-02-13T09:17:43.823Z,20.4
2017-02-13T09:18:52.379Z,20.5
2017-02-13T09:20:00.294Z,20.5
2017-02-13T09:21:08.080Z,20.5
2017-02-13T09:22:16.167Z,20.6
2017-02-13T09:23:24.253Z,20.5
2017-02-13T09:24:32.336Z,20.4
2017-02-13T09:25:40.426Z,20.5
2017-02-13T09:26:48.514Z,20.5
2017-02-13T09:27:56.594Z,20.5
2017-02-13T09:29:04.681Z,20.5
2017-02-13T09:30:12.768Z,20.5
2017-02-13T09:31:20.849Z,20.4
2017-02-13T09:32:28.933Z,20.5
2017-02-13T09:33:37.029Z,20.5
2017-02-13T09:34:45.123Z,20.5
2017-02-13T09:35:53.310Z,20.5
2017-02-13T09:37:01.291Z,20.5
2017-02-13T09:38:09.376Z,20.5
2017-02-13T09:39:17.458Z,20.5
2017-02-13T09:40:25.543Z,20.6
2017-02-13T09:41:33.752Z,20.6
2017-02-13T09:42:41.719Z,20.5
2017-02-13T09:43:49.808Z,20.5
2017-02-13T09:44:57.889Z,20.5
2017-02-13T09:46:05.973Z,20.5
2017-02-13T09:47:14.064Z,20.5
2017-02-13T09:48:22.148Z,20.5
2017-02-13T09:49:30.233Z,20.5
2017-02-13T09:50:38.312Z,20.6
2017-02-13T09:51:46.403Z,20.6
2017-02-13T09:52:54.627Z,20.6
2017-02-13T09:54:02.577Z,20.5
2017-02-13T09:55:10.657Z,20.5
2017-02-13T09:56:18.747Z,20.5
2017-02-13T09:57:26.833Z,20.6
2017-02-13T09:58:34.918Z,20.6
2017-02-13T09:59:43.419Z,20.5
2017-02-13T10:00:51.183Z,20.6
2017-02-13T10:01:59.187Z,20.5
2017-02-13T10:03:07.270Z,20.5
2017-02-13T10:04:15.429Z,20.5
2017-02-13T10:05:23.447Z,20.5
2017-02-13T10:06:31.533Z,20.6
2017-02-13T10:07:39.616Z,20.6
2017-02-13T10:08:47.702Z,20.5
2017-02-13T10:09:55.787Z,20.5
2017-02-13T10:11:03.875Z,20.5
2017-02-13T10:12:11.959Z,20.5
2017-02-13T10:13:20.048Z,20.5
2017-02-13T10:14:28.129Z,20.5
2017-02-13T10:15:36.215Z,20.5
2017-02-13T10:16:44.386Z,20.5
2017-02-13T10:17:52.418Z,20.5
2017-02-13T10:19:00.476Z,20.5
2017-02-13T10:20:08.569Z,20.5
2017-02-13T10:21:16.660Z,20.5
2017-02-13T10:22:24.745Z,20.5
2017-02-13T10:23:32.834Z,20.5
2017-02-13T10:24:40.923Z,20.5
2017-02-13T10:25:49.006Z,20.5
2017-02-13T10:26:57.090Z,20.5
2017-02-13T10:28:05.179Z,20.5
2017-02-13T10:29:13.267Z,20.5
2017-02-13T10:30:21.662Z,20.5
2017-02-13T10:31:29.741Z,20.5
2017-02-13T10:32:37.528Z,20.6
2017-02-13T10:33:45.611Z,20.5
2017-02-13T10:34:53.694Z,20.5
2017-02-13T10:36:01.780Z,20.5
2017-02-13T10:37:09.865Z,20.5
2017-02-13T10:38:17.978Z,20.5
2017-02-13T10:39:26.037Z,20.6
2017-02-13T10:40:34.128Z,20.5
2017-02-13T10:41:42.210Z,20.5
2017-02-13T10:42:50.304Z,20.6
2017-02-13T10:43:58.391Z,20.6
2017-02-13T10:45:06.476Z,20.5
2017-02-13T10:46:14.567Z,20.6
2017-02-13T10:47:22.648Z,20.6
2017-02-13T10:48:30.738Z,20.6
2017-02-13T10:49:38.830Z,20.7
2017-02-13T10:50:46.910Z,20.7
2017-02-13T10:51:55.003Z,20.6
2017-02-13T10:53:03.099Z,20.6
2017-02-13T10:54:11.169Z,20.7
2017-02-13T10:55:19.254Z,20.7
2017-02-13T10:56:27.338Z,20.7
2017-02-13T10:57:35.425Z,20.7
2017-02-13T10:58:43.514Z,20.7
2017-02-13T10:59:51.596Z,20.7
2017-02-13T11:00:59.684Z,20.7
2017-02-13T11:02:07.765Z,20.7
2017-02-13T11:03:15.855Z,20.7
2017-02-13T11:04:23.951Z,20.7
2017-02-13T11:05:32.035Z,20.8
2017-02-13T11:06:40.123Z,20.8
2017-02-13T11:07:48.211Z,20.8
2017-02-13T11:08:56.296Z,20.7
2017-02-13T11:10:04.386Z,20.8
2017-02-13T11:11:12.467Z,20.8
2017-02-13T11:12:20.567Z,20.7
2017-02-13T11:13:28.650Z,20.8
2017-02-13T11:14:36.734Z,20.7
2017-02-13T11:15:44.825Z,20.8
2017-02-13T11:16:52.908Z,20.7
2017-02-13T11:18:00.994Z,20.9
2017-02-13T11:19:09.083Z,20.8
2017-02-13T11:20:17.170Z,20.8
2017-02-13T11:21:25.580Z,20.8
2017-02-13T11:22:33.859Z,20.8
2017-02-13T11:23:41.424Z,20.7
2017-02-13T11:24:49.511Z,20.8
2017-02-13T11:25:57.606Z,20.8
2017-02-13T11:27:05.693Z,20.8
2017-02-13T11:28:13.779Z,20.9
2017-02-13T11:29:21.865Z,20.8
2017-02-13T11:30:29.949Z,20.8
2017-02-13T11:31:38.045Z,20.8
2017-02-13T11:32:46.134Z,20.8
2017-02-13T11:33:54.213Z,20.8
2017-02-13T11:35:02.303Z,20.8
2017-02-13T11:36:10.389Z,20.8
2017-02-13T11:37:18.478Z,20.8
2017-02-13T11:38:26.558Z,20.8
2017-02-13T11:39:34.644Z,20.8
2017-02-13T11:40:42.735Z,20.8
2017-02-13T11:41:50.820Z,20.8
2017-02-13T11:42:58.913Z,20.7
2017-02-13T11:44:07.043Z,20.8
2017-02-13T11:45:15.092Z,20.8
2017-02-13T11:46:23.174Z,20.9
2017-02-13T11:47:31.261Z,20.9
2017-02-13T11:48:39.345Z,20.8
2017-02-13T11:49:47.431Z,20.8
2017-02-13T11:50:55.817Z,20.7
2017-02-13T11:52:03.606Z,20.8
2017-02-13T11:53:11.689Z,20.8
2017-02-13T11:54:19.780Z,20.8
2017-02-13T11:55:27.869Z,20.9
2017-02-13T11:56:35.953Z,20.9
2017-02-13T11:57:44.031Z,20.8
2017-02-13T11:58:52.130Z,20.7
2017-02-13T12:00:00.217Z,20.8
2017-02-13T12:01:08.306Z,20.8
2017-02-13T12:02:16.386Z,20.7
2017-02-13T12:03:24.479Z,20.7
2017-02-13T12:04:32.557Z,20.8
2017-02-13T12:05:40.641Z,20.7
2017-02-13T12:06:48.730Z,20.8
2017-02-13T12:07:56.820Z,20.7
2017-02-13T12:09:04.908Z,20.8
2017-02-13T12:10:12.996Z,20.7
2017-02-13T12:11:21.083Z,20.7
2017-02-13T12:12:29.170Z,20.7
2017-02-13T12:13:37.253Z,20.7
2017-02-13T12:14:45.343Z,20.7
2017-02-13T12:15:53.426Z,20.7
2017-02-13T12:17:01.510Z,20.7
2017-02-13T12:18:09.664Z,20.7
2017-02-13T12:19:17.689Z,20.7
2017-02-13T12:20:25.771Z,20.7
2017-02-13T12:21:33.862Z,20.7
2017-02-13T12:22:41.955Z,20.7
2017-02-13T12:23:50.042Z,20.7
2017-02-13T12:24:58.121Z,20.7
2017-02-13T12:26:06.212Z,20.7
2017-02-13T12:27:14.295Z,20.6
2017-02-13T12:28:22.379Z,20.6
2017-02-13T12:29:30.464Z,20.6
2017-02-13T12:30:38.558Z,20.6
2017-02-13T12:31:46.637Z,20.6
2017-02-13T12:32:54.721Z,20.6
2017-02-13T12:34:02.812Z,20.6
2017-02-13T12:35:10.896Z,20.5
2017-02-13T12:36:19.034Z,20.5
2017-02-13T12:37:27.062Z,20.5
2017-02-13T12:38:35.148Z,20.5
2017-02-13T12:39:43.233Z,20.5
2017-02-13T12:40:51.322Z,20.5
2017-02-13T12:41:59.411Z,20.5
2017-02-13T12:43:07.497Z,20.5
2017-02-13T12:45:32.437Z,20.5
2017-02-13T12:45:33.812Z,20.5
2017-02-13T12:46:31.754Z,20.5
2017-02-13T12:47:39.837Z,20.6
2017-02-13T12:48:47.927Z,20.4
2017-02-13T12:49:56.016Z,20.5
2017-02-13T12:51:04.101Z,20.4
2017-02-13T12:52:12.187Z,20.5
2017-02-13T12:53:20.269Z,20.4
2017-02-13T12:54:28.362Z,20.5
2017-02-13T12:55:36.450Z,20.4
2017-02-13T12:56:44.535Z,20.4
2017-02-13T12:57:52.631Z,20.5
2017-02-13T12:59:00.720Z,20.5
2017-02-13T13:00:08.814Z,20.5
2017-02-13T13:01:16.893Z,20.4
2017-02-13T13:02:24.985Z,20.5
2017-02-13T13:03:33.069Z,20.5
2017-02-13T13:04:41.163Z,20.4
2017-02-13T13:05:49.773Z,20.4
2017-02-13T13:06:57.353Z,20.3
2017-02-13T13:08:05.425Z,20.4
2017-02-13T13:09:13.515Z,20.4
2017-02-13T13:10:21.600Z,20.3
2017-02-13T13:11:29.689Z,20.4
2017-02-13T13:12:37.775Z,20.4
2017-02-13T13:13:45.870Z,20.4
2017-02-13T13:14:53.958Z,20.3
2017-02-13T13:16:02.043Z,20.4
2017-02-13T13:17:10.135Z,20.3
2017-02-13T13:18:18.215Z,20.4
2017-02-13T13:19:26.315Z,20.3
2017-02-13T13:20:34.404Z,20.3
2017-02-13T13:21:42.484Z,20.2
2017-02-13T13:22:50.582Z,20.2
2017-02-13T13:23:58.667Z,20.2
2017-02-13T13:25:06.753Z,20.2
2017-02-13T13:26:14.846Z,20.1
2017-02-13T13:27:22.936Z,20.2
2017-02-13T13:28:31.027Z,20.2
2017-02-13T13:29:39.127Z,20.3
2017-02-13T13:30:47.217Z,20.1
2017-02-13T13:31:55.303Z,20.2
2017-02-13T13:33:03.394Z,20.2
2017-02-13T13:34:11.479Z,20.2
2017-02-13T13:35:19.569Z,20.1
2017-02-13T13:36:27.662Z,20.1
2017-02-13T13:37:35.750Z,20.1
2017-02-13T13:38:43.838Z,20.2
2017-02-13T13:39:51.917Z,20.1
2017-02-13T13:41:00.006Z,20.1
2017-02-13T13:42:08.093Z,20.1
2017-02-13T13:43:16.176Z,20.0
2017-02-13T13:44:24.281Z,20.1
2017-02-13T13:45:32.366Z,20.1
2017-02-13T13:46:40.452Z,20.0
2017-02-13T13:47:48.541Z,20.0
2017-02-13T13:48:56.629Z,20.1
2017-02-13T13:50:04.715Z,20.0
2017-02-13T13:51:12.803Z,20.1
2017-02-13T13:52:20.888Z,20.0
2017-02-13T13:53:28.986Z,19.9
2017-02-13T13:54:37.081Z,20.0
2017-02-13T13:55:45.164Z,20.0
2017-02-13T13:56:53.252Z,20.0
2017-02-13T13:58:01.352Z,20.0
2017-02-13T13:59:09.438Z,20.0
2017-02-13T14:00:17.521Z,20.0
2017-02-13T14:01:25.609Z,20.0
2017-02-13T14:02:33.697Z,20.0
2017-02-13T14:03:41.777Z,19.9
2017-02-13T14:04:49.868Z,19.9
2017-02-13T14:05:57.955Z,20.0
2017-02-13T14:07:06.033Z,20.0
2017-02-13T14:08:14.119Z,19.9
2017-02-13T14:09:22.374Z,19.9
2017-02-13T14:10:30.336Z,19.9
2017-02-13T14:11:38.378Z,19.9
2017-02-13T14:12:46.732Z,20.0
2017-02-13T14:13:54.707Z,20.0
2017-02-13T14:15:02.947Z,19.9
2017-02-13T14:16:10.945Z,20.0
2017-02-13T14:17:18.914Z,19.9
2017-02-13T14:18:27.083Z,20.0
2017-02-13T14:19:35.073Z,20.0
2017-02-13T14:20:43.067Z,20.0
2017-02-13T14:21:51.484Z,19.9
2017-02-13T14:22:59.241Z,20.0
2017-02-13T14:24:07.329Z,19.9
2017-02-13T14:25:15.413Z,20.0
2017-02-13T14:26:23.539Z,20.0
2017-02-13T14:27:31.584Z,20.0
2017-02-13T14:28:39.677Z,20.0
2017-02-13T14:29:47.761Z,20.0
2017-02-13T14:30:55.855Z,20.0
2017-02-13T14:32:03.931Z,20.0
2017-02-13T14:33:12.024Z,20.0
2017-02-13T14:34:20.307Z,20.0
2017-02-13T14:35:28.197Z,20.0
2017-02-13T14:36:36.285Z,20.0
2017-02-13T14:37:44.358Z,20.0
2017-02-13T14:38:52.444Z,20.1
2017-02-13T14:40:00.555Z,20.0
2017-02-13T14:41:08.615Z,20.0
2017-02-13T14:42:16.699Z,20.0
2017-02-13T14:43:24.784Z,20.1
2017-02-13T14:44:32.873Z,20.1
2017-02-13T14:45:40.958Z,20.0
2017-02-13T14:46:49.072Z,20.1
2017-02-13T14:47:57.128Z,20.1
2017-02-13T14:49:05.210Z,20.1
2017-02-13T14:50:13.293Z,20.1
2017-02-13T14:51:21.382Z,20.1
2017-02-13T14:52:29.472Z,20.1
2017-02-13T14:53:37.566Z,20.0
2017-02-13T14:54:45.706Z,20.1
2017-02-13T14:55:53.765Z,20.1
2017-02-13T14:57:01.844Z,20.1
2017-02-13T14:58:10.219Z,20.1
2017-02-13T14:59:18.087Z,20.1
2017-02-13T15:00:26.122Z,20.1
2017-02-13T15:01:34.311Z,20.1
2017-02-13T15:02:42.450Z,20.1
2017-02-13T15:03:50.497Z,20.2
2017-02-13T15:04:58.639Z,20.1
2017-02-13T15:06:06.660Z,20.1